Time;durP1;ratioP1;P1;durP2;ratioP2;P2;SDS_P1;SDS_P2;PMS_P1;PMS_P2;Temp;Humidity;BMP_temperature;BMP_pressure;BME280_temperature;BME280_humidity;BME280_pressure;Samples;Min_cycle;Max_cycle;Signal;HPM_P1;HPM_P2
2023/11/08 00:00:05;;;;;;;15.25;3.45;;;;;;;14.13;98.35;93175.91;5084734;28;20093;-83
2023/11/08 00:02:31;;;;;;;10.65;1.98;;;;;;;14.09;97.98;93167.84;5086094;28;20044;-83
2023/11/08 00:04:58;;;;;;;15.60;2.67;;;;;;;14.14;97.75;93164.56;5087530;28;20058;-83
2023/11/08 00:07:27;;;;;;;11.18;2.47;;;;;;;13.83;97.83;93125.28;5079263;28;20056;-84
2023/11/08 00:09:53;;;;;;;8.77;2.53;;;;;;;14.16;97.79;93181.38;5086976;28;20050;-83
2023/11/08 00:12:20;;;;;;;14.68;2.65;;;;;;;13.90;97.69;93136.28;5084413;28;20048;-83
2023/11/08 00:14:47;;;;;;;9.38;2.63;;;;;;;14.20;97.81;93178.34;5084974;28;20417;-83
2023/11/08 00:17:14;;;;;;;11.25;2.70;;;;;;;14.18;97.96;93165.66;5078887;28;20089;-82
2023/11/08 00:19:41;;;;;;;15.68;3.53;;;;;;;14.18;97.68;93170.03;5086350;28;20052;-83
2023/11/08 00:22:08;;;;;;;7.95;2.45;;;;;;;14.19;98.20;93158.69;5085779;28;20040;-83
2023/11/08 00:24:36;;;;;;;10.95;2.85;;;;;;;14.02;97.73;93142.16;5083121;28;20052;-83
2023/11/08 00:27:04;;;;;;;12.38;2.97;;;;;;;13.65;97.72;93085.75;5086110;28;20066;-83
2023/11/08 00:29:31;;;;;;;9.88;2.80;;;;;;;14.12;97.83;93161.44;5082137;28;20512;-83
2023/11/08 00:31:58;;;;;;;13.13;3.08;;;;;;;14.13;97.85;93168.94;5084603;28;20059;-83
2023/11/08 00:34:25;;;;;;;12.35;3.40;;;;;;;14.10;97.42;93166.03;5084462;28;20056;-82
2023/11/08 00:36:52;;;;;;;9.45;3.15;;;;;;;14.09;97.35;93162.69;5086859;28;20051;-83
2023/11/08 00:39:19;;;;;;;11.07;2.90;;;;;;;13.86;96.42;93133.38;5086346;28;20588;-82
2023/11/08 00:41:47;;;;;;;11.02;2.80;;;;;;;13.86;95.64;93135.94;5082818;28;20501;-83
2023/11/08 00:44:14;;;;;;;8.60;2.10;;;;;;;14.00;95.36;93151.94;5085449;28;20052;-83
2023/11/08 00:46:41;;;;;;;8.27;2.20;;;;;;;13.94;94.81;93139.16;5084345;28;20052;-83
2023/11/08 00:49:08;;;;;;;6.78;2.10;;;;;;;13.94;93.85;93134.00;5085946;28;20052;-83
2023/11/08 00:51:35;;;;;;;8.88;2.38;;;;;;;13.78;93.66;93114.88;5080307;28;20041;-83
2023/11/08 00:54:02;;;;;;;8.10;2.05;;;;;;;13.90;92.95;93120.78;5080666;28;20044;-84
2023/11/08 00:56:30;;;;;;;9.85;2.33;;;;;;;13.20;92.57;93007.28;5085699;28;20717;-83
2023/11/08 00:58:58;;;;;;;11.10;2.30;;;;;;;13.89;91.87;93114.81;5082811;28;20051;-84
2023/11/08 01:01:25;;;;;;;8.30;2.28;;;;;;;13.66;91.42;93066.66;5084670;28;20055;-83
2023/11/08 01:03:54;;;;;;;8.73;2.47;;;;;;;14.08;91.45;93112.03;5083749;28;20113;-83
2023/11/08 01:06:23;;;;;;;11.18;2.13;;;;;;;14.15;91.65;93104.13;5084477;28;20135;-84
2023/11/08 01:08:50;;;;;;;13.40;2.63;;;;;;;14.21;91.03;93110.16;5086095;28;20409;-84
2023/11/08 01:11:17;;;;;;;8.07;1.90;;;;;;;14.21;90.73;93102.41;5084684;28;20066;-85
2023/11/08 01:13:45;;;;;;;10.52;2.22;;;;;;;14.23;90.78;93095.22;5081182;28;20051;-84
2023/11/08 01:16:14;;;;;;;11.77;2.65;;;;;;;13.59;90.71;92994.56;5085876;28;20394;-84
2023/11/08 01:18:41;;;;;;;11.82;2.35;;;;;;;14.25;90.50;93090.56;5085891;28;21385;-84
2023/11/08 01:21:08;;;;;;;11.77;1.88;;;;;;;14.27;89.88;93096.31;5081793;28;20067;-84
2023/11/08 01:23:37;;;;;;;14.35;2.33;;;;;;;14.30;90.14;93096.63;5082332;28;20525;-83
2023/11/08 01:26:04;;;;;;;9.93;2.22;;;;;;;14.27;89.62;93088.56;5080063;28;20094;-83
2023/11/08 01:28:31;;;;;;;11.75;2.20;;;;;;;13.87;89.13;93015.38;5082980;28;20063;-82
2023/11/08 01:30:58;;;;;;;12.18;2.42;;;;;;;14.41;89.81;93091.59;5080976;28;20496;-82
2023/11/08 01:33:26;;;;;;;10.25;2.53;;;;;;;14.24;90.62;93063.97;5080645;28;20055;-82
2023/11/08 01:35:53;;;;;;;9.65;2.67;;;;;;;14.24;90.99;93073.50;5080169;28;20060;-83
2023/11/08 01:38:20;;;;;;;10.45;2.67;;;;;;;14.42;91.32;93093.97;5081378;28;20117;-82
2023/11/08 01:40:47;;;;;;;7.68;2.42;;;;;;;14.42;91.61;93088.00;5083690;28;20600;-82
2023/11/08 01:43:27;;;;;;;14.10;2.60;;;;;;;14.02;91.79;93035.47;5084311;28;20047;-82
2023/11/08 01:46:03;;;;;;;11.65;2.40;;;;;;;14.01;91.78;93026.16;5082684;28;20210;-83
2023/11/08 01:48:31;;;;;;;9.65;2.33;;;;;;;14.03;91.62;93032.66;5084231;28;20048;-85
2023/11/08 01:50:58;;;;;;;8.68;2.38;;;;;;;13.73;91.77;92994.25;5081007;28;20051;-83
2023/11/08 01:53:27;;;;;;;12.52;2.67;;;;;;;14.18;91.64;93059.75;5084575;28;20045;-83
2023/11/08 01:55:55;;;;;;;12.00;3.30;;;;;;;14.06;91.33;93043.56;5080898;28;20044;-82
2023/11/08 01:58:22;;;;;;;9.45;2.78;;;;;;;14.19;91.63;93052.78;5084081;28;20087;-83
2023/11/08 02:00:55;;;;;;;8.02;2.13;;;;;;;14.13;92.21;93050.09;5084809;28;20160;-83
2023/11/08 02:03:23;;;;;;;14.02;2.60;;;;;;;13.54;92.33;92966.09;5081862;28;20052;-83
2023/11/08 02:05:52;;;;;;;16.45;2.58;;;;;;;14.07;92.48;93040.72;5088711;28;20105;-82
2023/11/08 02:08:19;;;;;;;13.60;2.00;;;;;;;14.09;93.05;93050.81;5087920;28;20051;-82
2023/11/08 02:10:46;;;;;;;12.32;2.95;;;;;;;14.07;93.17;93058.03;5084494;28;20505;-82
2023/11/08 02:13:13;;;;;;;12.63;3.25;;;;;;;13.69;93.57;92991.34;5088929;28;20059;-82
2023/11/08 02:15:41;;;;;;;11.95;2.88;;;;;;;13.99;93.43;93034.16;5087918;28;20098;-82
2023/11/08 02:18:08;;;;;;;13.45;2.63;;;;;;;13.60;93.26;92983.22;5084491;28;20048;-83
2023/11/08 02:20:35;;;;;;;9.27;2.78;;;;;;;13.94;93.81;93021.19;5085273;28;20508;-83
2023/11/08 02:23:03;;;;;;;9.43;2.20;;;;;;;13.79;93.42;93008.03;5086315;28;20050;-83
2023/11/08 02:25:32;;;;;;;11.98;2.67;;;;;;;13.49;94.04;92960.84;5083829;28;20047;-82
2023/11/08 02:27:59;;;;;;;7.45;1.98;;;;;;;13.11;94.88;92916.63;5087718;28;20048;-82
2023/11/08 02:30:26;;;;;;;9.00;2.40;;;;;;;13.90;94.73;93013.09;5088503;28;20044;-84
2023/11/08 02:32:53;;;;;;;11.77;2.53;;;;;;;13.81;95.54;93003.41;5088939;28;20056;-84
2023/11/08 02:35:20;;;;;;;8.40;2.45;;;;;;;13.86;95.78;93024.94;5086969;28;20044;-82
2023/11/08 02:37:48;;;;;;;10.85;3.10;;;;;;;13.72;95.81;93021.88;5086210;28;20061;-82
2023/11/08 02:40:15;;;;;;;8.45;2.30;;;;;;;13.82;96.02;93041.09;5084987;28;20059;-77
2023/11/08 02:42:45;;;;;;;9.38;2.20;;;;;;;13.81;96.15;93031.81;5087159;28;20501;-84
2023/11/08 02:45:12;;;;;;;7.82;2.00;;;;;;;13.75;96.51;93028.38;5088300;28;20127;-82
2023/11/08 02:47:40;;;;;;;16.05;2.80;;;;;;;13.75;96.74;93029.13;5088021;28;20421;-83
2023/11/08 02:50:08;;;;;;;13.32;3.00;;;;;;;13.69;97.22;93035.22;5087241;28;20049;-83
2023/11/08 02:52:35;;;;;;;12.77;3.58;;;;;;;13.65;97.52;93028.19;5088634;28;20059;-82
2023/11/08 02:55:03;;;;;;;10.23;2.78;;;;;;;13.47;97.79;93007.50;5088741;28;20044;-81
2023/11/08 02:57:30;;;;;;;11.40;2.72;;;;;;;13.40;98.59;93011.22;5086735;28;20052;-82
2023/11/08 03:00:03;;;;;;;13.80;2.95;;;;;;;13.30;99.26;93006.66;5085733;28;20055;-81
2023/11/08 03:02:33;;;;;;;8.35;2.38;;;;;;;13.48;99.12;93040.03;5088418;28;20044;-81
2023/11/08 03:05:00;;;;;;;13.63;3.38;;;;;;;13.02;99.33;92972.13;5086362;28;20048;-82
2023/11/08 03:07:47;;;;;;;11.52;2.58;;;;;;;12.50;99.35;92892.06;5085271;28;20059;-82
2023/11/08 03:10:17;;;;;;;11.20;3.08;;;;;;;13.34;99.94;93018.88;5086819;28;20093;-81
2023/11/08 03:12:44;;;;;;;10.65;2.58;;;;;;;13.35;99.35;93022.25;5085321;28;20062;-82
2023/11/08 03:15:13;;;;;;;13.55;2.97;;;;;;;12.92;99.44;92970.16;5082087;28;20047;-81
2023/11/08 03:17:50;;;;;;;14.60;3.55;;;;;;;13.42;99.15;93035.00;5084803;28;20054;-81
2023/11/08 03:20:18;;;;;;;10.70;2.90;;;;;;;13.40;97.88;93039.59;5084841;28;20036;-82
2023/11/08 03:22:45;;;;;;;10.23;2.67;;;;;;;13.41;98.11;93036.00;5087870;28;20054;-82
2023/11/08 03:25:13;;;;;;;11.10;2.42;;;;;;;13.39;97.46;93033.69;5083107;28;20048;-83
2023/11/08 03:27:42;;;;;;;10.15;2.28;;;;;;;13.38;97.61;93039.06;5086753;28;20056;-83
2023/11/08 03:30:59;;;;;;;8.52;2.40;;;;;;;12.33;97.65;92901.53;5086963;28;20095;-83
2023/11/08 03:37:06;;;;;;;9.13;2.63;;;;;;;12.63;97.28;92946.94;4953645;28;20059;-82
2023/11/08 03:39:33;;;;;;;11.27;2.33;;;;;;;13.43;96.64;93057.97;4980982;28;20042;-82
2023/11/08 03:41:59;;;;;;;11.95;3.40;;;;;;;13.17;96.83;93015.47;5069201;28;20135;-83
2023/11/08 03:44:26;;;;;;;12.82;3.28;;;;;;;13.40;96.91;93066.19;5088103;28;20059;-82
2023/11/08 03:46:53;;;;;;;12.82;3.10;;;;;;;12.47;97.07;92944.06;5086638;28;20044;-83
2023/11/08 03:49:20;;;;;;;12.80;3.28;;;;;;;13.27;97.35;93062.09;5085416;28;20044;-83
2023/11/08 03:51:47;;;;;;;8.43;3.10;;;;;;;13.01;98.16;93020.34;5083214;28;20062;-83
2023/11/08 03:54:15;;;;;;;14.95;3.10;;;;;;;13.16;98.59;93055.16;5087418;28;20568;-81
2023/11/08 03:56:42;;;;;;;12.25;4.07;;;;;;;13.15;98.18;93051.03;5086709;28;20047;-81
2023/11/08 03:59:09;;;;;;;10.90;2.67;;;;;;;12.93;97.83;93024.09;5086876;28;20036;-82
2023/11/08 04:01:41;;;;;;;11.70;2.72;;;;;;;12.89;97.79;93017.81;5086736;28;20054;-82
2023/11/08 04:04:16;;;;;;;12.13;3.00;;;;;;;13.03;97.92;93038.97;5084347;28;20044;-83
2023/11/08 04:06:47;;;;;;;13.20;2.60;;;;;;;13.02;97.64;93031.44;5086073;28;20055;-83
2023/11/08 04:09:37;;;;;;;18.38;2.85;;;;;;;11.83;97.67;92857.25;5084409;28;20181;-84
2023/11/08 04:12:12;;;;;;;11.40;2.92;;;;;;;11.97;97.65;92880.97;5044571;28;20083;-82
2023/11/08 04:14:39;;;;;;;13.52;3.47;;;;;;;12.94;98.17;93012.75;5084353;28;20405;-83
2023/11/08 04:20:05;;;;;;;10.98;2.70;;;;;;;12.94;99.30;92996.50;5079085;28;20106;-83
2023/11/08 04:22:32;;;;;;;13.57;2.45;;;;;;;13.03;99.43;93002.84;5083090;28;20040;-83
2023/11/08 04:25:00;;;;;;;8.50;2.78;;;;;;;13.07;99.38;93001.38;5085969;28;20516;-82
2023/11/08 04:27:27;;;;;;;10.45;2.92;;;;;;;13.14;100.00;93011.56;5085119;28;20043;-83
2023/11/08 04:29:54;;;;;;;11.82;3.13;;;;;;;12.81;100.00;92959.66;5082773;28;20390;-83
2023/11/08 04:32:20;;;;;;;12.05;2.22;;;;;;;13.16;100.00;93009.53;5083456;28;20048;-82
2023/11/08 04:34:48;;;;;;;10.27;2.83;;;;;;;13.23;100.00;93025.66;5081986;28;20048;-82
2023/11/08 04:37:15;;;;;;;13.68;2.40;;;;;;;13.26;100.00;93024.41;5082051;28;20130;-83
2023/11/08 04:39:46;;;;;;;13.40;2.88;;;;;;;13.25;100.00;93015.13;5083881;28;20044;-82
2023/11/08 04:42:15;;;;;;;10.13;2.50;;;;;;;13.30;100.00;93017.78;5082805;28;20541;-82
2023/11/08 04:44:45;;;;;;;11.55;3.15;;;;;;;13.39;100.00;93023.34;5083506;28;20047;-82
2023/11/08 04:47:17;;;;;;;13.73;3.03;;;;;;;13.38;100.00;93024.34;5082696;28;20036;-82
2023/11/08 04:49:48;;;;;;;7.80;2.47;;;;;;;12.85;100.00;92948.88;5082189;28;20550;-83
2023/11/08 04:52:15;;;;;;;13.15;2.45;;;;;;;13.43;100.00;93034.75;5084539;28;20118;-83
2023/11/08 04:54:42;;;;;;;9.48;3.25;;;;;;;13.33;100.00;93019.88;5083825;28;20052;-83
2023/11/08 04:57:09;;;;;;;14.43;3.50;;;;;;;13.39;100.00;93032.88;5086286;28;20837;-83
2023/11/08 04:59:37;;;;;;;15.80;3.90;;;;;;;13.44;100.00;93038.94;5086091;28;20051;-82
2023/11/08 05:02:04;;;;;;;11.00;4.43;;;;;;;13.44;100.00;93030.41;5085792;28;20040;-81
2023/11/08 05:04:31;;;;;;;15.57;5.53;;;;;;;13.45;100.00;93019.06;5083391;28;20040;-80
2023/11/08 05:06:58;;;;;;;11.88;5.15;;;;;;;13.36;100.00;93028.97;5084813;28;20039;-80
2023/11/08 05:09:25;;;;;;;10.50;3.00;;;;;;;13.42;100.00;93029.84;5084937;28;20048;-81
2023/11/08 05:11:52;;;;;;;9.65;2.25;;;;;;;13.17;100.00;92984.53;5084952;28;20059;-81
2023/11/08 05:14:19;;;;;;;13.15;3.55;;;;;;;13.40;100.00;93016.38;5085558;28;20036;-81
2023/11/08 05:16:47;;;;;;;13.13;3.25;;;;;;;13.30;100.00;93002.31;5084335;28;20102;-81
2023/11/08 05:19:15;;;;;;;13.45;3.67;;;;;;;13.57;100.00;93027.53;5082382;28;20039;-81
2023/11/08 05:21:43;;;;;;;10.52;2.60;;;;;;;13.27;100.00;92979.53;5078633;28;20524;-82
2023/11/08 05:24:10;;;;;;;13.45;3.35;;;;;;;13.56;100.00;93032.97;5085576;28;20039;-83
2023/11/08 05:26:57;;;;;;;13.35;3.03;;;;;;;13.32;100.00;92995.09;5083494;28;20040;-79
2023/11/08 05:29:25;;;;;;;12.27;3.38;;;;;;;13.59;100.00;93030.69;5085678;28;20044;-83
2023/11/08 05:31:53;;;;;;;14.70;4.13;;;;;;;13.63;100.00;93034.38;5085217;28;20097;-82
2023/11/08 05:34:20;;;;;;;12.93;4.05;;;;;;;13.61;100.00;93015.75;5085382;28;20044;-83
2023/11/08 05:36:47;;;;;;;17.67;6.72;;;;;;;13.61;100.00;93031.22;5083559;28;20055;-84
2023/11/08 05:39:21;;;;;;;23.83;9.35;;;;;;;12.98;100.00;92938.31;5085305;28;20040;-83
2023/11/08 05:41:49;;;;;;;23.05;10.75;;;;;;;13.63;100.00;93031.00;5087899;28;20048;-85
2023/11/08 05:44:16;;;;;;;30.50;14.80;;;;;;;13.31;100.00;92988.41;5084613;28;20098;-84
2023/11/08 05:46:43;;;;;;;30.30;15.13;;;;;;;13.67;100.00;93032.09;5088950;28;20101;-85
2023/11/08 05:49:11;;;;;;;35.70;16.17;;;;;;;13.66;100.00;93029.75;5088017;28;20059;-82
2023/11/08 05:51:38;;;;;;;33.30;15.52;;;;;;;13.63;100.00;93011.16;5086530;28;20077;-84
2023/11/08 05:54:06;;;;;;;33.15;14.95;;;;;;;13.27;100.00;92946.00;5086096;28;20519;-84
2023/11/08 05:56:33;;;;;;;24.02;11.82;;;;;;;12.99;100.00;92911.50;5085203;28;20052;-84
2023/11/08 05:59:00;;;;;;;19.42;8.48;;;;;;;13.55;100.00;92997.81;5087907;28;20052;-84
2023/11/08 06:01:27;;;;;;;19.40;7.20;;;;;;;13.74;100.00;93000.97;5090151;28;20546;-84
2023/11/08 06:03:54;;;;;;;16.75;5.88;;;;;;;13.75;100.00;93002.56;5090466;28;20043;-85
2023/11/08 06:06:22;;;;;;;18.10;4.50;;;;;;;13.41;99.48;92964.56;5089322;28;20105;-86
2023/11/08 06:08:49;;;;;;;14.80;4.30;;;;;;;13.96;99.45;93028.66;5088916;28;20066;-87
2023/11/08 06:11:16;;;;;;;15.38;3.28;;;;;;;13.55;99.18;92961.69;5095687;28;20609;-87
2023/11/08 06:13:44;;;;;;;14.45;4.55;;;;;;;13.18;98.53;92908.72;5096828;28;20109;-86
2023/11/08 06:16:11;;;;;;;13.10;4.45;;;;;;;13.59;98.08;92968.75;5090663;28;20063;-85
2023/11/08 06:18:38;;;;;;;13.57;5.07;;;;;;;14.00;97.96;93014.28;5087434;28;20048;-85
2023/11/08 06:21:05;;;;;;;24.85;5.45;;;;;;;13.74;97.45;92975.16;5089067;28;20060;-85
2023/11/08 06:23:33;;;;;;;18.38;4.93;;;;;;;14.11;96.95;93034.06;5084938;28;20676;-85
2023/11/08 06:26:00;;;;;;;15.20;3.20;;;;;;;14.14;96.38;93038.78;5087218;28;20055;-85
2023/11/08 06:28:27;;;;;;;17.27;3.78;;;;;;;14.26;95.65;93049.00;5090652;28;20052;-87
2023/11/08 06:30:53;;;;;;;15.15;4.47;;;;;;;14.36;95.22;93063.09;5089164;28;20063;-85
2023/11/08 06:33:20;;;;;;;16.92;4.72;;;;;;;13.79;94.93;92975.22;5086523;28;21010;-86
2023/11/08 06:35:47;;;;;;;16.33;4.45;;;;;;;14.46;94.82;93054.72;5087842;28;20055;-87
2023/11/08 06:38:14;;;;;;;16.75;5.47;;;;;;;14.13;94.49;93008.00;5092519;28;20055;-86
2023/11/08 06:40:42;;;;;;;19.88;7.03;;;;;;;14.21;95.16;93006.84;5086078;28;20534;-86
2023/11/08 06:43:10;;;;;;;15.32;4.53;;;;;;;14.52;95.69;93053.75;5089505;28;20048;-86
2023/11/08 06:45:37;;;;;;;14.70;3.92;;;;;;;14.50;95.60;93050.63;5089220;28;20084;-84
2023/11/08 06:48:05;;;;;;;13.02;3.95;;;;;;;14.57;95.83;93062.38;5089178;28;20055;-85
2023/11/08 06:50:31;;;;;;;16.23;6.30;;;;;;;14.46;96.21;93058.09;5085939;28;20048;-85
2023/11/08 06:52:59;;;;;;;15.45;5.43;;;;;;;14.49;96.18;93064.59;5085251;28;20048;-85
2023/11/08 06:55:26;;;;;;;17.77;6.88;;;;;;;14.52;97.20;93080.41;5087967;28;20093;-84
2023/11/08 06:58:01;;;;;;;21.25;9.68;;;;;;;14.56;98.06;93098.78;5088424;28;20052;-85
2023/11/08 07:00:28;;;;;;;14.90;5.43;;;;;;;14.57;100.00;93101.16;5085757;28;20036;-84
2023/11/08 07:02:55;;;;;;;16.60;5.60;;;;;;;14.54;100.00;93116.34;5087386;28;20048;-84
2023/11/08 07:05:22;;;;;;;18.27;6.13;;;;;;;14.51;100.00;93106.47;5084609;28;20052;-84
2023/11/08 07:07:49;;;;;;;14.32;4.50;;;;;;;14.52;100.00;93114.00;5088736;28;20501;-83
2023/11/08 07:10:16;;;;;;;17.85;4.53;;;;;;;14.46;100.00;93101.22;5085553;28;20055;-83
2023/11/08 07:12:43;;;;;;;13.82;4.63;;;;;;;14.40;100.00;93087.47;5084146;28;20044;-83
2023/11/08 07:15:12;;;;;;;10.27;3.90;;;;;;;14.29;100.00;93089.88;5087637;28;20051;-82
2023/11/08 07:17:39;;;;;;;13.40;4.93;;;;;;;14.31;100.00;93100.00;5088707;28;20048;-83
2023/11/08 07:20:07;;;;;;;18.60;6.38;;;;;;;14.32;100.00;93095.59;5085934;28;20494;-83
2023/11/08 07:22:35;;;;;;;15.55;4.55;;;;;;;14.22;100.00;93081.53;5084273;28;20048;-82
2023/11/08 07:25:03;;;;;;;17.30;4.40;;;;;;;14.23;100.00;93102.97;5086286;28;20048;-82
2023/11/08 07:27:30;;;;;;;16.85;5.43;;;;;;;14.14;100.00;93100.78;5086446;28;20102;-82
2023/11/08 07:29:56;;;;;;;16.08;3.97;;;;;;;14.09;100.00;93100.69;5090024;28;20477;-82
2023/11/08 07:32:26;;;;;;;13.23;5.35;;;;;;;14.07;100.00;93109.69;5092873;28;20048;-81
2023/11/08 07:34:52;;;;;;;15.63;5.05;;;;;;;14.05;100.00;93116.88;5086473;28;20047;-81
2023/11/08 07:37:19;;;;;;;15.93;6.90;;;;;;;14.07;100.00;93117.44;5087441;28;20048;-81
2023/11/08 07:39:46;;;;;;;18.73;8.10;;;;;;;13.87;100.00;93095.41;5082357;28;20047;-81
2023/11/08 07:42:13;;;;;;;18.23;7.32;;;;;;;13.76;100.00;93121.03;5085618;28;20048;-82
2023/11/08 07:44:40;;;;;;;26.15;9.88;;;;;;;13.72;100.00;93114.78;5092529;28;20066;-81
2023/11/08 07:47:06;;;;;;;19.45;9.90;;;;;;;13.68;100.00;93087.88;5091315;28;20048;-81
2023/11/08 07:49:35;;;;;;;16.25;7.22;;;;;;;13.61;100.00;93064.78;5090037;28;20059;-81
2023/11/08 07:52:01;;;;;;;14.98;6.80;;;;;;;13.66;100.00;93061.50;5089033;28;20564;-81
2023/11/08 07:54:28;;;;;;;16.77;6.90;;;;;;;13.70;100.00;93038.59;5091762;28;20048;-81
2023/11/08 07:56:55;;;;;;;18.98;7.18;;;;;;;13.68;100.00;93020.75;5089408;28;20044;-81
2023/11/08 07:59:22;;;;;;;15.18;4.30;;;;;;;13.61;100.00;93005.41;5090122;28;20056;-82
2023/11/08 08:01:49;;;;;;;10.68;3.90;;;;;;;13.66;100.00;93004.72;5090845;28;20056;-81
2023/11/08 08:04:16;;;;;;;8.85;3.95;;;;;;;13.67;100.00;93008.88;5089803;28;20048;-82
2023/11/08 08:06:44;;;;;;;13.13;4.00;;;;;;;13.70;100.00;93015.38;5088576;28;20044;-82
2023/11/08 08:09:14;;;;;;;14.90;6.95;;;;;;;13.73;100.00;93002.78;5091251;28;20117;-81
2023/11/08 08:11:44;;;;;;;20.70;8.50;;;;;;;13.80;100.00;93012.16;5088781;28;20047;-81
2023/11/08 08:14:11;;;;;;;14.38;7.28;;;;;;;13.81;100.00;93009.34;5090182;28;20500;-81
2023/11/08 08:16:39;;;;;;;18.85;9.05;;;;;;;13.74;100.00;93019.81;5095668;28;20478;-81
2023/11/08 08:19:06;;;;;;;17.60;7.20;;;;;;;13.75;100.00;93016.22;5086619;28;20052;-81
2023/11/08 08:21:34;;;;;;;15.90;6.40;;;;;;;13.81;100.00;93032.59;5089983;28;20044;-81
2023/11/08 08:24:02;;;;;;;20.27;5.90;;;;;;;13.62;100.00;93026.88;5083227;28;20051;-80
2023/11/08 08:26:29;;;;;;;13.90;5.18;;;;;;;13.86;100.00;93037.84;5082155;28;20397;-80
2023/11/08 08:28:56;;;;;;;13.32;5.00;;;;;;;13.87;100.00;93030.84;5085781;28;20043;-80
2023/11/08 08:31:23;;;;;;;14.00;5.18;;;;;;;13.79;100.00;93015.78;5091381;28;20511;-80
2023/11/08 08:33:51;;;;;;;11.07;4.45;;;;;;;13.84;100.00;93033.94;5087540;28;20052;-80
2023/11/08 08:36:18;;;;;;;12.00;4.50;;;;;;;13.72;100.00;93013.34;5096437;28;20492;-80
2023/11/08 08:38:45;;;;;;;8.25;3.33;;;;;;;13.84;100.00;93021.78;5091565;28;20057;-80
2023/11/08 08:41:13;;;;;;;15.55;3.97;;;;;;;13.74;100.00;93017.25;5082884;28;20497;-80
2023/11/08 08:43:41;;;;;;;11.07;3.70;;;;;;;13.83;100.00;93019.44;5092439;28;20059;-80
2023/11/08 08:46:08;;;;;;;12.85;2.63;;;;;;;13.87;100.00;93010.22;5086968;28;20047;-80
2023/11/08 08:48:35;;;;;;;16.17;3.75;;;;;;;13.76;100.00;92986.03;5086910;28;20515;-80
2023/11/08 08:51:02;;;;;;;9.48;3.65;;;;;;;13.89;100.00;93003.03;5090589;28;20066;-80
2023/11/08 08:53:29;;;;;;;11.23;3.50;;;;;;;13.94;100.00;93017.81;5090128;28;20051;-80
2023/11/08 08:55:56;;;;;;;9.40;3.47;;;;;;;13.97;100.00;93019.91;5094139;28;20422;-80
2023/11/08 08:58:24;;;;;;;12.13;3.67;;;;;;;14.02;100.00;93020.78;5087575;28;20044;-79
2023/11/08 09:00:51;;;;;;;14.15;4.07;;;;;;;14.09;100.00;93027.56;5082963;28;20051;-80
2023/11/08 09:03:18;;;;;;;15.27;3.38;;;;;;;14.14;100.00;93030.25;5090732;28;20045;-80
2023/11/08 09:05:45;;;;;;;15.75;4.57;;;;;;;14.18;100.00;93031.34;5092113;28;20048;-80
2023/11/08 09:08:12;;;;;;;18.60;6.03;;;;;;;14.17;100.00;93032.38;5092580;28;20052;-80
2023/11/08 09:10:38;;;;;;;16.35;5.72;;;;;;;14.29;100.00;93042.59;5092924;28;20052;-80
2023/11/08 09:13:07;;;;;;;15.23;5.32;;;;;;;14.34;100.00;93034.91;5094670;28;20496;-80
2023/11/08 09:15:35;;;;;;;19.30;5.80;;;;;;;14.40;100.00;93030.63;5095558;28;20489;-80
2023/11/08 09:18:02;;;;;;;16.48;5.50;;;;;;;14.43;100.00;93033.50;5090194;28;20044;-80
2023/11/08 09:20:29;;;;;;;16.50;5.45;;;;;;;14.33;100.00;93019.66;5092973;28;20054;-80
2023/11/08 09:22:56;;;;;;;17.25;5.57;;;;;;;14.37;100.00;93025.91;5097992;28;20051;-80
2023/11/08 09:25:23;;;;;;;18.88;5.30;;;;;;;14.50;100.00;93045.47;5096782;28;20059;-81
2023/11/08 09:27:50;;;;;;;20.98;7.53;;;;;;;14.52;100.00;93053.75;5094173;28;20047;-80
2023/11/08 09:30:17;;;;;;;18.20;7.10;;;;;;;14.54;100.00;93051.75;5098944;28;20855;-80
2023/11/08 09:32:46;;;;;;;15.57;6.25;;;;;;;14.50;100.00;93048.84;5090223;28;20064;-80
2023/11/08 09:35:15;;;;;;;13.25;4.80;;;;;;;14.44;100.00;93057.53;5091501;28;20496;-80
2023/11/08 09:37:42;;;;;;;18.65;6.63;;;;;;;14.34;100.00;93058.16;5090438;28;20798;-81
2023/11/08 09:40:10;;;;;;;12.90;5.32;;;;;;;14.34;100.00;93081.41;5090549;28;20051;-80
2023/11/08 09:42:39;;;;;;;19.30;6.50;;;;;;;14.19;100.00;93065.69;5090616;28;20058;-80
2023/11/08 09:45:08;;;;;;;15.82;6.20;;;;;;;14.16;100.00;93072.09;5094345;28;20396;-80
2023/11/08 09:47:37;;;;;;;19.02;6.10;;;;;;;14.12;100.00;93065.88;5087201;28;20079;-80
2023/11/08 09:50:09;;;;;;;12.95;5.53;;;;;;;14.09;100.00;93072.28;5089640;28;20540;-80
2023/11/08 09:52:37;;;;;;;16.17;6.95;;;;;;;14.05;100.00;93073.75;5088883;28;20183;-81
2023/11/08 09:55:05;;;;;;;24.88;8.25;;;;;;;13.99;100.00;93066.94;5088134;28;20516;-81
2023/11/08 09:57:35;;;;;;;21.23;9.38;;;;;;;14.02;100.00;93093.09;5090239;28;20044;-81
2023/11/08 10:00:03;;;;;;;20.13;10.18;;;;;;;13.97;100.00;93092.22;5086612;28;20052;-81
2023/11/08 10:02:30;;;;;;;34.97;13.90;;;;;;;13.82;100.00;93103.06;5086961;28;20056;-81
2023/11/08 10:04:59;;;;;;;25.02;12.00;;;;;;;13.72;100.00;93080.44;5086402;28;20043;-82
2023/11/08 10:07:27;;;;;;;24.33;10.82;;;;;;;13.92;100.00;93117.97;5089372;28;20052;-82
2023/11/08 10:09:54;;;;;;;22.10;9.85;;;;;;;13.75;100.00;93080.00;5093234;28;20047;-83
2023/11/08 10:12:21;;;;;;;21.70;7.13;;;;;;;13.82;100.00;93103.06;5088500;28;20417;-83
2023/11/08 10:14:57;;;;;;;16.02;5.50;;;;;;;13.43;100.00;93085.59;5088414;28;20048;-83
2023/11/08 10:17:35;;;;;;;13.60;5.32;;;;;;;13.15;100.00;93081.97;5088880;28;20052;-82
2023/11/08 10:20:02;;;;;;;15.02;6.53;;;;;;;13.27;100.00;93085.31;5088484;28;20344;-82
2023/11/08 10:22:30;;;;;;;12.63;4.80;;;;;;;13.24;100.00;93090.91;5092685;28;20052;-83
2023/11/08 10:25:00;;;;;;;16.00;6.72;;;;;;;13.14;100.00;93088.91;5082457;28;20056;-83
2023/11/08 10:27:28;;;;;;;16.23;8.25;;;;;;;13.13;100.00;93074.47;5096307;28;20048;-83
2023/11/08 10:30:12;;;;;;;10.40;3.63;;;;;;;12.96;100.00;93075.16;5090881;28;20059;-83
2023/11/08 10:32:38;;;;;;;10.63;5.65;;;;;;;12.89;100.00;93069.38;5100635;28;20048;-84
2023/11/08 10:35:14;;;;;;;12.05;4.88;;;;;;;12.69;100.00;93057.63;5095057;28;20052;-84
2023/11/08 10:37:43;;;;;;;15.70;6.53;;;;;;;12.88;100.00;93082.47;5087163;28;20050;-84
2023/11/08 10:40:13;;;;;;;23.23;8.93;;;;;;;12.91;100.00;93075.06;5089393;28;20052;-83
2023/11/08 10:42:40;;;;;;;19.08;6.80;;;;;;;12.93;100.00;93060.16;5089516;28;20056;-83
2023/11/08 10:45:08;;;;;;;25.60;7.90;;;;;;;13.08;100.00;93090.63;5089079;28;20505;-83
2023/11/08 10:47:36;;;;;;;25.75;6.38;;;;;;;13.10;100.00;93087.78;5083000;28;20056;-85
2023/11/08 10:50:05;;;;;;;21.42;5.88;;;;;;;13.07;100.00;93098.59;5088324;28;20059;-83
2023/11/08 10:52:33;;;;;;;21.15;8.18;;;;;;;13.16;100.00;93101.59;5083928;28;20040;-83
2023/11/08 10:55:04;;;;;;;17.48;6.75;;;;;;;13.20;100.00;93100.13;5084210;28;20044;-82
2023/11/08 10:57:33;;;;;;;16.50;6.25;;;;;;;13.13;100.00;93095.09;5087325;28;20429;-82
2023/11/08 11:00:03;;;;;;;14.57;5.05;;;;;;;13.11;100.00;93102.28;5088520;28;20063;-82
2023/11/08 11:02:37;;;;;;;12.80;5.00;;;;;;;12.99;100.00;93096.34;5090186;28;20052;-82
2023/11/08 11:05:09;;;;;;;11.50;3.60;;;;;;;12.92;100.00;93101.63;5088960;28;20133;-83
2023/11/08 11:07:40;;;;;;;9.23;2.83;;;;;;;12.56;100.00;93078.47;5092610;28;20044;-81
2023/11/08 11:10:10;;;;;;;9.48;4.25;;;;;;;12.81;100.00;93126.41;5088234;28;20083;-82
2023/11/08 11:12:47;;;;;;;9.13;3.78;;;;;;;12.80;100.00;93137.72;5095749;28;20052;-82
2023/11/08 11:15:32;;;;;;;7.20;3.65;;;;;;;12.69;100.00;93127.19;5092947;28;20044;-81
2023/11/08 11:18:03;;;;;;;9.88;4.45;;;;;;;12.69;100.00;93116.88;5092156;28;20056;-82
2023/11/08 11:20:42;;;;;;;8.88;4.45;;;;;;;12.59;100.00;93123.63;5096408;28;20515;-81
2023/11/08 11:23:31;;;;;;;11.48;8.00;;;;;;;12.45;100.00;93128.97;5092203;28;20047;-81
2023/11/08 11:26:00;;;;;;;8.73;5.68;;;;;;;12.41;100.00;93115.75;5090235;28;20048;-82
2023/11/08 11:28:52;;;;;;;9.02;4.00;;;;;;;12.42;100.00;93137.94;5090528;28;20048;-83
2023/11/08 11:31:32;;;;;;;5.30;3.40;;;;;;;12.19;100.00;93119.88;5075030;28;20052;-82
2023/11/08 11:33:59;;;;;;;4.20;2.47;;;;;;;12.27;100.00;93145.31;5090799;28;20058;-82